Time;durP1;ratioP1;P1;durP2;ratioP2;P2;SDS_P1;SDS_P2;PMS_P1;PMS_P2;Temp;Humidity;BMP_temperature;BMP_pressure;BME280_temperature;BME280_humidity;BME280_pressure;Samples;Min_cycle;Max_cycle;Signal;HPM_P1;HPM_P2
2022/03/19 00:02:13;;;;;;;9.32;4.15;;;;;;;4.29;63.24;101882.28;4968312;28;20045;-51
2022/03/19 00:04:39;;;;;;;13.63;6.15;;;;;;;4.35;62.75;101880.94;4961712;28;20027;-52
2022/03/19 00:07:04;;;;;;;14.57;5.47;;;;;;;4.28;64.83;101877.97;4962727;28;20054;-53
2022/03/19 00:09:29;;;;;;;7.85;4.40;;;;;;;4.29;65.02;101882.28;4969142;28;20027;-54
2022/03/19 00:11:55;;;;;;;8.23;4.20;;;;;;;4.26;62.83;101874.59;4956666;28;20050;-52
2022/03/19 00:14:20;;;;;;;9.65;4.57;;;;;;;4.32;62.46;101871.44;4952622;28;20461;-54
2022/03/19 00:16:46;;;;;;;13.55;5.90;;;;;;;4.38;62.09;101876.16;4965016;28;21042;-54
2022/03/19 00:19:11;;;;;;;12.23;6.30;;;;;;;4.34;62.13;101872.09;4967310;28;20537;-52
2022/03/19 00:21:37;;;;;;;18.92;6.30;;;;;;;4.32;62.41;101882.03;4966820;28;20501;-51
2022/03/19 00:24:04;;;;;;;13.52;5.60;;;;;;;4.25;62.62;101875.59;4965908;28;20077;-54
2022/03/19 00:26:30;;;;;;;11.73;4.63;;;;;;;4.30;62.53;101876.84;4965740;28;20058;-52
2022/03/19 00:28:55;;;;;;;18.05;7.90;;;;;;;4.25;62.77;101875.59;4964124;28;20035;-51
2022/03/19 00:31:21;;;;;;;14.82;4.65;;;;;;;4.14;63.36;101876.53;4961547;28;20494;-53
2022/03/19 00:33:46;;;;;;;9.80;4.03;;;;;;;4.15;63.28;101862.31;4964287;28;20033;-51
2022/03/19 00:36:12;;;;;;;8.98;3.90;;;;;;;4.22;62.93;101865.22;4967799;28;20039;-52
2022/03/19 00:38:37;;;;;;;9.77;4.35;;;;;;;4.82;61.10;101870.47;4968349;28;20105;-53
2022/03/19 00:41:03;;;;;;;7.35;4.32;;;;;;;4.41;62.20;101870.59;4967237;28;20058;-51
2022/03/19 00:43:29;;;;;;;9.23;4.28;;;;;;;4.36;62.53;101867.50;4968712;28;20039;-53
2022/03/19 00:45:54;;;;;;;14.75;5.78;;;;;;;4.25;63.10;101865.81;4960926;28;20047;-52
2022/03/19 00:48:20;;;;;;;10.00;4.35;;;;;;;4.23;63.39;101872.22;4956926;28;20043;-53
2022/03/19 00:50:45;;;;;;;13.32;4.40;;;;;;;4.18;63.67;101864.69;4959311;28;20054;-53
2022/03/19 00:53:10;;;;;;;9.90;4.55;;;;;;;4.13;63.98;101866.91;4959047;28;20040;-53
2022/03/19 00:55:36;;;;;;;10.18;4.28;;;;;;;4.18;63.83;101863.84;4957620;28;20054;-53
2022/03/19 00:58:01;;;;;;;10.25;4.30;;;;;;;4.01;64.45;101866.16;4968345;28;20034;-54
2022/03/19 01:00:27;;;;;;;16.58;5.60;;;;;;;4.01;64.53;101868.81;4966471;28;20105;-53
2022/03/19 01:02:54;;;;;;;20.95;7.38;;;;;;;3.96;64.82;101859.59;4958562;28;20473;-54
2022/03/19 01:05:20;;;;;;;8.70;4.95;;;;;;;3.93;64.88;101851.91;4967794;28;20042;-52
2022/03/19 01:07:55;;;;;;;10.82;4.85;;;;;;;3.90;65.07;101850.34;4957281;28;20445;-53
2022/03/19 01:10:25;;;;;;;13.90;7.13;;;;;;;3.89;65.10;101851.31;4961575;28;20054;-52
2022/03/19 01:12:50;;;;;;;10.18;4.82;;;;;;;3.87;65.22;101842.69;4964835;28;20078;-53
2022/03/19 01:15:16;;;;;;;10.57;4.55;;;;;;;3.79;65.60;101847.78;4961074;28;20078;-53
2022/03/19 01:17:41;;;;;;;11.38;4.43;;;;;;;3.70;65.87;101845.97;4967038;28;20038;-54
2022/03/19 01:20:10;;;;;;;11.48;4.40;;;;;;;3.71;66.03;101844.97;4967858;28;20128;-52
2022/03/19 01:22:36;;;;;;;12.00;4.32;;;;;;;3.62;66.38;101847.47;4972133;28;20448;-54
2022/03/19 01:25:04;;;;;;;8.98;4.03;;;;;;;3.62;66.62;101852.75;4971858;28;20034;-53
2022/03/19 01:27:33;;;;;;;10.85;4.10;;;;;;;3.68;66.50;101846.91;4965044;28;20050;-53
2022/03/19 01:29:59;;;;;;;10.52;4.25;;;;;;;3.69;66.61;101850.41;4968408;28;20039;-54
2022/03/19 01:32:24;;;;;;;7.85;3.95;;;;;;;3.63;66.90;101843.00;4961953;28;20523;-51
2022/03/19 01:34:50;;;;;;;9.02;4.05;;;;;;;3.62;66.87;101836.84;4971922;28;20047;-53
2022/03/19 01:37:15;;;;;;;9.63;4.97;;;;;;;3.53;67.41;101837.63;4971082;28;20050;-53
2022/03/19 01:39:41;;;;;;;10.75;4.25;;;;;;;3.58;67.10;101835.44;4965214;28;20023;-54
2022/03/19 01:42:06;;;;;;;9.18;4.60;;;;;;;3.50;67.40;101829.97;4970380;28;20125;-54
2022/03/19 01:44:32;;;;;;;10.05;3.92;;;;;;;3.44;67.66;101834.00;4960306;28;20042;-53
2022/03/19 01:46:58;;;;;;;8.25;4.15;;;;;;;3.35;68.16;101836.59;4968970;28;20410;-53
2022/03/19 01:49:24;;;;;;;12.85;3.80;;;;;;;3.26;68.56;101824.09;4968904;28;20039;-54
2022/03/19 01:51:49;;;;;;;9.65;3.97;;;;;;;3.15;69.10;101825.03;4970860;28;20047;-54
2022/03/19 01:54:15;;;;;;;9.63;4.40;;;;;;;3.09;69.26;101829.03;4966693;28;20037;-52
2022/03/19 01:56:41;;;;;;;12.82;4.57;;;;;;;3.01;70.03;101836.78;4970399;28;20560;-53
2022/03/19 01:59:06;;;;;;;10.68;3.95;;;;;;;3.07;69.88;101823.03;4953733;28;20030;-51
2022/03/19 02:01:32;;;;;;;9.70;4.40;;;;;;;3.12;69.63;101822.63;4963257;28;20034;-52
2022/03/19 02:03:57;;;;;;;9.77;4.10;;;;;;;3.15;69.24;101817.91;4963707;28;20039;-50
2022/03/19 02:06:22;;;;;;;8.77;4.00;;;;;;;3.18;69.38;101817.66;4952663;28;20046;-52
2022/03/19 02:08:48;;;;;;;12.85;5.30;;;;;;;3.08;69.60;101827.34;4969703;28;20034;-50
2022/03/19 02:11:14;;;;;;;10.65;3.80;;;;;;;3.05;69.87;101819.66;4970652;28;20050;-53
2022/03/19 02:13:40;;;;;;;9.13;4.20;;;;;;;3.07;69.83;101820.38;4970910;28;20043;-53
2022/03/19 02:16:05;;;;;;;10.15;4.40;;;;;;;3.04;69.96;101810.03;4969507;28;20058;-50
2022/03/19 02:18:33;;;;;;;10.25;4.03;;;;;;;3.07;69.99;101815.09;4964456;28;20038;-52
2022/03/19 02:20:58;;;;;;;6.53;3.97;;;;;;;3.05;69.93;101805.59;4965337;28;20319;-52
2022/03/19 02:26:09;;;;;;;12.27;4.03;;;;;;;3.03;70.16;101795.94;4965201;28;20062;-51
2022/03/19 02:28:35;;;;;;;12.18;3.97;;;;;;;2.96;70.36;101791.28;4960071;28;20097;-52
2022/03/19 02:31:00;;;;;;;7.90;3.40;;;;;;;3.07;70.02;101799.19;4970270;28;20043;-50
2022/03/19 02:33:25;;;;;;;7.43;3.97;;;;;;;3.03;70.28;101788.00;4968814;28;20787;-50
2022/03/19 02:35:51;;;;;;;12.18;4.55;;;;;;;2.99;70.54;101791.88;4962203;28;20043;-50
2022/03/19 02:38:16;;;;;;;8.57;3.95;;;;;;;2.94;71.02;101785.28;4964720;28;20034;-52
2022/03/19 02:40:42;;;;;;;9.43;3.55;;;;;;;2.91;71.02;101775.78;4966180;28;20127;-53
2022/03/19 02:43:07;;;;;;;12.02;4.00;;;;;;;2.89;71.14;101775.06;4968677;28;20533;-54
2022/03/19 02:45:33;;;;;;;8.38;3.70;;;;;;;2.87;71.36;101771.75;4966678;28;20070;-52
2022/03/19 02:48:01;;;;;;;9.18;4.07;;;;;;;2.92;71.01;101782.78;4967100;28;20488;-52
2022/03/19 02:50:31;;;;;;;7.47;3.40;;;;;;;2.99;70.85;101778.63;4960007;28;20054;-53
2022/03/19 02:52:57;;;;;;;8.70;4.07;;;;;;;2.96;70.95;101775.41;4960113;28;20039;-53
2022/03/19 02:55:23;;;;;;;7.95;3.53;;;;;;;2.93;71.04;101770.38;4960988;28;20043;-53
2022/03/19 02:57:48;;;;;;;8.32;4.15;;;;;;;2.89;71.13;101776.88;4969447;28;20026;-52
2022/03/19 03:00:14;;;;;;;11.80;3.95;;;;;;;2.89;71.28;101768.94;4964243;28;20038;-51
2022/03/19 03:02:39;;;;;;;8.45;3.70;;;;;;;2.84;71.61;101766.69;4969807;28;20109;-51
2022/03/19 03:05:05;;;;;;;9.35;3.83;;;;;;;2.81;71.72;101773.06;4957660;28;20042;-52
2022/03/19 03:07:31;;;;;;;12.65;4.82;;;;;;;2.83;71.67;101769.47;4965917;28;20023;-51
2022/03/19 03:09:56;;;;;;;9.00;4.80;;;;;;;2.79;71.92;101766.22;4970046;28;20039;-55
2022/03/19 03:12:22;;;;;;;13.18;5.65;;;;;;;2.80;71.99;101771.41;4965228;28;20094;-53
2022/03/19 03:14:48;;;;;;;15.95;5.68;;;;;;;2.77;72.10;101769.03;4960426;28;20384;-52
2022/03/19 03:17:13;;;;;;;12.25;5.72;;;;;;;2.72;72.41;101768.56;4968996;28;20105;-51
2022/03/19 03:19:39;;;;;;;13.40;7.07;;;;;;;2.69;72.72;101773.28;4960355;28;20050;-54
2022/03/19 03:22:04;;;;;;;10.93;5.88;;;;;;;2.72;72.63;101760.63;4954889;28;20051;-53
2022/03/19 03:24:30;;;;;;;15.98;6.97;;;;;;;2.73;73.76;101759.66;4969982;28;20035;-54
2022/03/19 03:26:55;;;;;;;12.95;6.88;;;;;;;2.74;72.39;101757.84;4967927;28;20061;-53
2022/03/19 03:29:21;;;;;;;11.23;4.40;;;;;;;2.74;72.30;101758.66;4977711;28;20034;-52
2022/03/19 03:31:46;;;;;;;9.65;4.18;;;;;;;2.75;72.41;101757.72;4967015;28;20639;-53
2022/03/19 03:34:11;;;;;;;9.13;5.15;;;;;;;2.76;72.72;101764.69;4966596;28;20035;-52
2022/03/19 03:36:37;;;;;;;10.10;4.30;;;;;;;2.75;72.58;101763.00;4963812;28;20042;-53
2022/03/19 03:39:02;;;;;;;9.75;4.50;;;;;;;2.76;72.62;101759.38;4968837;28;20046;-52
2022/03/19 03:41:28;;;;;;;9.45;4.10;;;;;;;2.76;72.51;101759.38;4965322;28;20043;-53
2022/03/19 03:43:53;;;;;;;8.32;4.03;;;;;;;2.76;72.67;101758.53;4969428;28;20049;-52
2022/03/19 03:46:18;;;;;;;10.88;4.75;;;;;;;2.74;72.79;101756.00;4968459;28;20047;-52
2022/03/19 03:48:44;;;;;;;12.30;4.45;;;;;;;2.66;72.58;101758.47;4968659;28;20031;-51
2022/03/19 03:51:10;;;;;;;13.80;4.13;;;;;;;2.72;73.17;101754.47;4968658;28;20043;-50
2022/03/19 03:53:36;;;;;;;8.88;4.15;;;;;;;2.72;73.19;101747.38;4965469;28;20513;-54
2022/03/19 03:56:03;;;;;;;9.38;3.85;;;;;;;2.87;72.53;101755.84;4945182;28;20051;-54
2022/03/19 03:58:28;;;;;;;11.30;4.00;;;;;;;2.77;72.80;101744.31;4958434;28;20035;-54
2022/03/19 04:00:54;;;;;;;10.32;3.58;;;;;;;2.89;72.86;101742.44;4966902;28;20219;-53
2022/03/19 04:03:20;;;;;;;8.88;3.90;;;;;;;2.78;72.77;101738.91;4959386;28;20034;-53
2022/03/19 04:05:45;;;;;;;13.57;4.00;;;;;;;2.74;73.27;101740.13;4968695;28;20042;-53
2022/03/19 04:08:10;;;;;;;10.95;4.60;;;;;;;2.63;73.48;101734.91;4959446;28;20070;-53
2022/03/19 04:10:36;;;;;;;11.13;4.25;;;;;;;2.59;73.73;101738.78;4962654;28;20043;-51
2022/03/19 04:13:01;;;;;;;8.10;3.80;;;;;;;2.73;73.31;101733.16;4963779;28;20481;-51
2022/03/19 04:15:27;;;;;;;8.10;3.83;;;;;;;2.77;73.53;101731.94;4958247;28;20525;-53
2022/03/19 04:17:52;;;;;;;13.98;4.13;;;;;;;2.76;73.42;101737.34;4965929;28;20405;-53
2022/03/19 04:20:18;;;;;;;10.82;3.97;;;;;;;2.77;73.45;101733.72;4968190;28;20062;-51
2022/03/19 04:22:44;;;;;;;9.85;4.10;;;;;;;2.80;73.71;101729.03;4965399;28;20054;-52
2022/03/19 04:25:13;;;;;;;9.75;4.35;;;;;;;2.79;73.82;101731.78;4968354;28;20031;-50
2022/03/19 04:27:42;;;;;;;12.23;4.53;;;;;;;2.81;73.94;101720.09;4968903;28;20553;-51
2022/03/19 04:30:12;;;;;;;9.18;3.97;;;;;;;2.74;74.27;101721.59;4961134;28;20058;-51
2022/03/19 04:32:48;;;;;;;11.00;3.78;;;;;;;2.87;74.11;101728.50;4971203;28;20031;-52
2022/03/19 04:37:59;;;;;;;11.18;3.88;;;;;;;2.76;74.89;101732.06;4964456;28;20109;-51
2022/03/19 04:40:24;;;;;;;12.43;4.20;;;;;;;2.72;75.23;101726.19;4968342;28;20512;-51
2022/03/19 04:42:50;;;;;;;11.68;4.10;;;;;;;2.70;75.36;101728.13;4962249;28;20053;-52
2022/03/19 04:45:16;;;;;;;8.25;3.78;;;;;;;2.67;75.87;101722.25;4968077;28;20042;-52
2022/03/19 04:47:41;;;;;;;12.90;4.60;;;;;;;2.65;76.24;101718.91;4962830;28;20041;-54
2022/03/19 04:50:07;;;;;;;13.77;4.50;;;;;;;2.70;76.49;101712.25;4958716;28;20035;-53
2022/03/19 04:52:34;;;;;;;11.75;4.68;;;;;;;2.67;76.56;101723.09;4968664;28;20456;-54
2022/03/19 04:55:00;;;;;;;9.93;4.50;;;;;;;2.71;76.71;101713.91;4957486;28;20039;-52
2022/03/19 04:57:27;;;;;;;16.77;4.38;;;;;;;2.79;76.73;101716.72;4955882;28;20122;-52
2022/03/19 04:59:53;;;;;;;11.85;4.68;;;;;;;2.84;76.74;101719.00;4958213;28;20030;-53
2022/03/19 05:02:20;;;;;;;12.77;4.45;;;;;;;2.84;76.89;101719.00;4959708;28;20051;-53
2022/03/19 05:04:45;;;;;;;10.73;4.70;;;;;;;2.85;77.12;101719.84;4964479;28;20057;-53
2022/03/19 05:07:11;;;;;;;9.90;4.93;;;;;;;2.85;76.81;101717.22;4964441;28;20515;-53
2022/03/19 05:12:34;;;;;;;10.10;4.18;;;;;;;2.96;76.92;101722.41;4959909;28;20134;-54
2022/03/19 05:14:59;;;;;;;8.63;4.40;;;;;;;2.93;77.16;101723.50;4964325;28;20039;-53
2022/03/19 05:17:25;;;;;;;7.63;3.95;;;;;;;2.98;77.39;101725.78;4936765;28;20224;-51
2022/03/19 05:19:51;;;;;;;15.02;4.78;;;;;;;2.95;77.64;101718.94;4950449;28;20494;-52
2022/03/19 05:22:17;;;;;;;9.10;4.35;;;;;;;2.96;77.39;101711.81;4937618;28;20043;-53
2022/03/19 05:24:42;;;;;;;10.77;4.13;;;;;;;2.93;77.77;101718.22;4938458;28;20030;-54
2022/03/19 05:27:11;;;;;;;10.73;4.72;;;;;;;2.96;77.79;101719.75;4931382;28;20051;-54
2022/03/19 05:29:37;;;;;;;10.13;4.18;;;;;;;3.04;77.51;101714.63;4931519;29;20096;-52
2022/03/19 05:32:03;;;;;;;11.15;4.50;;;;;;;3.08;77.47;101720.53;4936605;28;20521;-53
2022/03/19 05:34:31;;;;;;;10.30;4.28;;;;;;;3.12;77.16;101722.78;4932053;29;20036;-53
2022/03/19 05:37:03;;;;;;;12.13;4.70;;;;;;;3.23;77.20;101722.69;4914944;29;20043;-51
2022/03/19 05:39:30;;;;;;;7.55;3.97;;;;;;;3.36;76.78;101729.56;4930588;29;20078;-54
2022/03/19 05:41:55;;;;;;;10.07;4.07;;;;;;;3.36;76.60;101729.56;4930758;28;20486;-53
2022/03/19 05:44:21;;;;;;;10.52;4.50;;;;;;;3.39;76.54;101724.81;4931802;29;20027;-53
2022/03/19 05:46:47;;;;;;;12.07;4.57;;;;;;;3.32;76.76;101731.66;4931305;28;20059;-54
2022/03/19 05:49:12;;;;;;;9.48;4.45;;;;;;;3.30;77.16;101722.16;4931460;28;20035;-52
2022/03/19 05:51:38;;;;;;;10.70;4.70;;;;;;;3.40;76.43;101730.97;4931919;28;20397;-54
2022/03/19 05:54:03;;;;;;;15.82;5.03;;;;;;;3.36;76.62;101734.88;4936046;29;20035;-54
2022/03/19 05:56:29;;;;;;;9.02;4.50;;;;;;;3.45;76.09;101728.75;4935112;28;20126;-52
2022/03/19 05:58:55;;;;;;;10.75;4.72;;;;;;;3.44;75.98;101735.03;4929769;29;20047;-53
2022/03/19 06:01:26;;;;;;;12.50;4.30;;;;;;;3.54;75.61;101735.88;4930645;28;20055;-52
2022/03/19 06:03:54;;;;;;;13.32;4.45;;;;;;;3.74;75.00;101736.78;4944529;28;20039;-53
2022/03/19 06:06:20;;;;;;;13.38;4.68;;;;;;;3.72;74.88;101737.88;4935457;28;20748;-54
2022/03/19 06:08:45;;;;;;;16.48;5.15;;;;;;;3.83;74.42;101743.09;4935692;28;20477;-53
2022/03/19 06:11:11;;;;;;;13.77;4.85;;;;;;;4.35;72.83;101742.84;4932095;28;20048;-54
2022/03/19 06:13:36;;;;;;;11.27;4.93;;;;;;;5.95;67.35;101737.41;4941119;29;20047;-54
2022/03/19 06:16:02;;;;;;;10.95;4.38;;;;;;;7.04;62.46;101734.44;4938876;28;20059;-52
2022/03/19 06:18:27;;;;;;;12.38;4.88;;;;;;;7.99;58.91;101736.97;4937517;29;20034;-52
2022/03/19 06:20:53;;;;;;;11.43;5.07;;;;;;;8.34;57.18;101735.00;4933969;28;20585;-51
2022/03/19 06:23:18;;;;;;;11.82;5.47;;;;;;;9.36;54.41;101730.84;4934299;29;20076;-51
2022/03/19 06:25:44;;;;;;;10.38;5.32;;;;;;;9.73;53.03;101723.97;4934797;28;20503;-51
2022/03/19 06:28:09;;;;;;;14.52;5.40;;;;;;;10.21;51.09;101734.53;4935888;29;20024;-54
2022/03/19 06:30:37;;;;;;;13.80;5.85;;;;;;;10.84;49.40;101732.53;4932950;28;20051;-55
2022/03/19 06:33:04;;;;;;;12.85;5.60;;;;;;;10.59;49.51;101732.78;4944024;29;20048;-53
2022/03/19 06:38:15;;;;;;;22.83;10.35;;;;;;;12.44;45.21;101733.44;4939053;29;20042;-55
2022/03/19 06:40:40;;;;;;;19.17;7.10;;;;;;;12.28;45.02;101734.56;4939051;28;20498;-52
2022/03/19 06:43:05;;;;;;;17.15;7.03;;;;;;;12.23;44.98;101731.63;4940695;29;20031;-55
2022/03/19 06:45:31;;;;;;;15.43;7.05;;;;;;;11.77;45.92;101731.91;4934193;28;20040;-54
2022/03/19 06:47:56;;;;;;;15.10;5.50;;;;;;;13.00;43.21;101738.00;4933941;29;20020;-55
2022/03/19 06:50:22;;;;;;;11.77;5.20;;;;;;;12.95;43.61;101738.63;4935161;28;20047;-54
2022/03/19 06:52:47;;;;;;;13.35;5.85;;;;;;;13.82;42.37;101730.97;4934533;29;20079;-50
2022/03/19 06:55:12;;;;;;;13.55;5.30;;;;;;;12.33;44.04;101741.19;4932731;28;20032;-53
2022/03/19 06:57:38;;;;;;;10.70;5.55;;;;;;;11.88;45.94;101733.31;4933958;29;20474;-53
2022/03/19 07:00:04;;;;;;;12.98;6.38;;;;;;;12.68;44.29;101734.03;4932976;28;20031;-54
2022/03/19 07:02:29;;;;;;;30.25;15.25;;;;;;;12.52;45.17;101730.63;4937706;29;20071;-52
2022/03/19 07:04:55;;;;;;;23.55;12.55;;;;;;;12.70;43.50;101740.06;4945075;29;20042;-54
2022/03/19 07:07:20;;;;;;;12.35;8.02;;;;;;;12.11;45.54;101738.53;4933840;28;20102;-53
2022/03/19 07:09:46;;;;;;;26.20;14.15;;;;;;;11.72;46.58;101739.72;4933969;29;20027;-53
2022/03/19 07:12:11;;;;;;;20.45;8.18;;;;;;;11.74;47.11;101736.84;4933500;28;20051;-52
2022/03/19 07:14:40;;;;;;;24.95;10.05;;;;;;;11.34;47.87;101739.03;4933920;28;20032;-53
2022/03/19 07:17:05;;;;;;;19.75;10.90;;;;;;;11.70;47.16;101731.00;4932418;28;20052;-51
2022/03/19 07:19:31;;;;;;;13.55;7.85;;;;;;;11.31;48.12;101732.19;4934310;28;20413;-52
2022/03/19 07:21:57;;;;;;;16.05;7.05;;;;;;;11.83;47.44;101736.56;4941076;28;20047;-53
2022/03/19 07:24:22;;;;;;;17.05;7.90;;;;;;;11.54;47.75;101736.59;4932645;29;20366;-52
2022/03/19 07:26:48;;;;;;;16.33;7.93;;;;;;;10.73;50.19;101728.44;4938098;28;20040;-53
2022/03/19 07:29:15;;;;;;;18.30;9.15;;;;;;;10.25;51.37;101722.47;4934223;29;20035;-52
2022/03/19 07:31:41;;;;;;;17.73;7.63;;;;;;;10.48;50.40;101736.72;4933234;28;20457;-53
2022/03/19 07:34:06;;;;;;;24.10;7.13;;;;;;;10.32;50.69;101735.00;4933570;29;20036;-52
2022/03/19 07:36:32;;;;;;;17.45;7.13;;;;;;;9.71;51.78;101732.19;4933350;28;20054;-54
2022/03/19 07:38:57;;;;;;;19.05;7.28;;;;;;;9.61;52.96;101742.28;4931760;29;20351;-54
2022/03/19 07:44:07;;;;;;;15.18;6.88;;;;;;;9.18;54.05;101732.91;4933306;29;20042;-53
2022/03/19 07:46:34;;;;;;;17.05;6.25;;;;;;;9.38;54.08;101733.34;4950826;28;20051;-53
2022/03/19 07:49:01;;;;;;;14.88;6.75;;;;;;;9.15;53.96;101733.25;4958782;28;20472;-54
2022/03/19 07:51:27;;;;;;;17.20;6.30;;;;;;;8.93;55.24;101730.28;4954594;28;20044;-52
2022/03/19 07:53:52;;;;;;;17.02;5.78;;;;;;;8.83;55.12;101735.81;4939713;29;20513;-54
2022/03/19 07:56:18;;;;;;;22.05;6.50;;;;;;;8.78;55.72;101716.78;4936893;28;20035;-53
2022/03/19 07:58:49;;;;;;;10.52;5.55;;;;;;;8.62;56.42;101732.84;4941197;29;20046;-53
2022/03/19 08:01:15;;;;;;;15.02;6.72;;;;;;;8.67;56.53;101730.50;4942918;28;20576;-54
2022/03/19 08:03:40;;;;;;;9.75;5.35;;;;;;;8.94;55.91;101731.16;4944508;28;20035;-53
2022/03/19 08:06:06;;;;;;;12.63;5.07;;;;;;;8.70;55.51;101729.34;4947200;28;20433;-53
2022/03/19 08:08:33;;;;;;;15.73;6.88;;;;;;;9.14;55.29;101721.72;4943902;29;20395;-51
2022/03/19 08:11:00;;;;;;;10.88;5.70;;;;;;;9.16;54.78;101717.03;4942793;28;20442;-53
2022/03/19 08:13:25;;;;;;;10.40;4.78;;;;;;;8.80;55.29;101724.63;4947312;29;20023;-53
2022/03/19 08:15:50;;;;;;;13.25;6.47;;;;;;;8.59;56.37;101722.50;4940955;28;20051;-53
2022/03/19 08:18:16;;;;;;;13.65;5.32;;;;;;;9.40;54.08;101720.63;4959621;28;20598;-54
2022/03/19 08:20:42;;;;;;;13.98;4.80;;;;;;;8.58;55.08;101728.84;4946070;28;20050;-54
2022/03/19 08:23:07;;;;;;;13.73;6.32;;;;;;;9.27;54.49;101721.19;4948260;28;20035;-51
2022/03/19 08:25:33;;;;;;;12.27;5.07;;;;;;;9.14;53.17;101737.78;4947071;28;20098;-54
2022/03/19 08:28:00;;;;;;;14.15;5.55;;;;;;;8.90;54.02;101741.34;4946954;29;20031;-53
2022/03/19 08:30:26;;;;;;;12.30;5.18;;;;;;;8.93;53.65;101724.09;4948188;28;20569;-53
2022/03/19 08:32:51;;;;;;;14.68;5.28;;;;;;;8.92;53.75;101717.09;4938533;28;20040;-54
2022/03/19 08:35:17;;;;;;;14.75;5.85;;;;;;;9.18;53.83;101709.66;4942903;28;20016;-51
2022/03/19 08:37:42;;;;;;;12.43;5.55;;;;;;;9.52;51.84;101707.69;4943800;29;20518;-54
2022/03/19 08:40:17;;;;;;;10.93;4.75;;;;;;;9.18;52.03;101712.31;4945769;28;20474;-53
2022/03/19 08:42:44;;;;;;;9.95;4.55;;;;;;;8.96;52.30;101715.75;4947757;29;20066;-53
2022/03/19 08:45:09;;;;;;;13.32;6.55;;;;;;;9.50;51.64;101710.53;4939631;28;20066;-54
2022/03/19 08:47:35;;;;;;;12.93;5.82;;;;;;;9.85;51.06;101724.41;4947333;29;20023;-53
2022/03/19 08:50:01;;;;;;;6.32;3.95;;;;;;;9.39;51.17;101706.41;4945492;28;20042;-53
2022/03/19 08:52:26;;;;;;;22.27;6.43;;;;;;;9.78;49.57;101712.72;4965439;28;20584;-52
2022/03/19 08:54:52;;;;;;;13.18;6.10;;;;;;;9.68;50.37;101711.13;4961087;28;20173;-53
2022/03/19 08:57:19;;;;;;;12.43;5.40;;;;;;;9.66;49.77;101714.97;4939404;28;20441;-54
2022/03/19 08:59:45;;;;;;;15.30;5.15;;;;;;;9.63;49.92;101699.25;4942354;29;20118;-54
2022/03/19 09:02:10;;;;;;;15.13;5.07;;;;;;;9.82;49.50;101692.63;4946398;28;20035;-51
2022/03/19 09:04:36;;;;;;;13.38;6.15;;;;;;;9.64;49.97;101688.38;4948058;28;20027;-52
2022/03/19 09:07:01;;;;;;;11.48;4.95;;;;;;;9.69;49.71;101686.00;4940885;28;20047;-52
2022/03/19 09:09:27;;;;;;;13.73;5.65;;;;;;;10.09;49.34;101684.06;4947794;28;20055;-52
2022/03/19 09:11:52;;;;;;;15.93;6.20;;;;;;;9.95;49.42;101687.50;4945067;28;20371;-53
2022/03/19 09:14:19;;;;;;;11.93;5.47;;;;;;;9.87;49.63;101684.88;4941241;28;20038;-54
2022/03/19 09:16:45;;;;;;;13.45;5.38;;;;;;;10.29;48.81;101683.59;4937748;28;20397;-54
2022/03/19 09:19:10;;;;;;;17.38;5.90;;;;;;;10.44;47.82;101670.25;4948170;28;20043;-52
2022/03/19 09:21:36;;;;;;;17.25;6.10;;;;;;;10.29;47.64;101672.88;4948411;28;20050;-53
2022/03/19 09:24:03;;;;;;;17.83;6.00;;;;;;;9.99;48.04;101677.28;4954568;28;20039;-53
2022/03/19 09:26:29;;;;;;;14.90;4.88;;;;;;;10.13;47.63;101693.41;4954191;28;20046;-52
2022/03/19 09:28:54;;;;;;;16.67;6.18;;;;;;;10.01;48.36;101670.72;4963247;28;20097;-53
2022/03/19 09:31:20;;;;;;;13.43;5.15;;;;;;;10.05;47.91;101661.31;4965683;28;20573;-54
2022/03/19 09:33:46;;;;;;;14.82;6.13;;;;;;;10.15;47.66;101686.00;4961525;28;20378;-54
2022/03/19 09:36:15;;;;;;;10.07;5.25;;;;;;;10.24;47.84;101675.25;4964432;28;20079;-54
2022/03/19 09:38:40;;;;;;;10.88;5.72;;;;;;;10.22;48.11;101674.59;4968508;28;20428;-54
2022/03/19 09:41:07;;;;;;;8.95;3.90;;;;;;;9.87;47.84;101674.19;4964186;28;20042;-54
2022/03/19 09:43:32;;;;;;;13.98;5.45;;;;;;;9.98;47.83;101663.03;4965116;28;20877;-53
2022/03/19 09:45:57;;;;;;;12.32;6.18;;;;;;;10.40;47.89;101655.53;4969963;28;20066;-52
2022/03/19 09:48:23;;;;;;;15.18;5.38;;;;;;;10.17;47.99;101652.84;4969815;28;20043;-54
2022/03/19 09:50:56;;;;;;;13.00;4.63;;;;;;;10.25;47.66;101645.56;4968890;28;20096;-54
2022/03/19 09:53:24;;;;;;;15.85;5.82;;;;;;;10.26;47.94;101638.34;4970154;28;20240;-54
2022/03/19 09:55:53;;;;;;;11.45;5.80;;;;;;;10.17;47.94;101648.31;4948142;28;20062;-52
2022/03/19 09:58:18;;;;;;;10.75;4.32;;;;;;;10.14;47.30;101633.44;4934384;29;20055;-54
2022/03/19 10:00:44;;;;;;;14.80;5.32;;;;;;;10.40;47.37;101634.91;4942292;28;20051;-54
2022/03/19 10:03:10;;;;;;;12.57;4.80;;;;;;;9.90;48.16;101639.81;4939739;29;20484;-53
2022/03/19 10:08:36;;;;;;;9.13;4.88;;;;;;;10.71;45.74;101615.16;4940227;29;20058;-53
2022/03/19 10:11:09;;;;;;;12.75;5.05;;;;;;;10.22;46.70;101629.84;4933295;28;20514;-53
2022/03/19 10:13:40;;;;;;;9.13;4.35;;;;;;;10.32;46.45;101614.38;4937447;29;20205;-54
2022/03/19 10:16:06;;;;;;;15.23;5.80;;;;;;;10.57;46.38;101595.34;4932561;28;20054;-52
2022/03/19 10:18:31;;;;;;;11.85;5.32;;;;;;;10.62;45.35;101602.84;4940115;28;20031;-53
2022/03/19 10:21:01;;;;;;;12.38;5.72;;;;;;;10.85;45.20;101598.19;4931644;28;20110;-53
2022/03/19 10:23:35;;;;;;;10.50;4.00;;;;;;;10.68;44.78;101594.03;4933383;29;20127;-54
2022/03/19 10:26:01;;;;;;;10.68;4.85;;;;;;;10.43;45.18;101590.81;4932611;28;20044;-54
2022/03/19 10:28:31;;;;;;;9.88;3.70;;;;;;;10.91;43.36;101602.00;4932885;29;20529;-53
2022/03/19 10:30:56;;;;;;;13.55;4.13;;;;;;;10.43;43.71;101594.31;4934622;28;20056;-52
2022/03/19 10:33:27;;;;;;;8.07;3.72;;;;;;;10.50;43.01;101591.75;4932428;29;20035;-54
2022/03/19 10:36:11;;;;;;;9.35;4.18;;;;;;;10.57;42.93;101582.78;4932897;28;20521;-54
2022/03/19 10:38:41;;;;;;;8.68;4.15;;;;;;;11.01;43.52;101581.91;4933036;29;20047;-55
2022/03/19 10:41:06;;;;;;;11.93;3.80;;;;;;;10.55;42.54;101589.34;4936320;28;20065;-52
2022/03/19 10:43:32;;;;;;;7.97;3.83;;;;;;;10.51;42.15;101586.19;4932647;28;20040;-54
2022/03/19 10:45:58;;;;;;;11.85;4.80;;;;;;;10.72;41.64;101565.84;4932254;28;20040;-53
2022/03/19 10:48:28;;;;;;;12.52;4.88;;;;;;;11.18;40.79;101576.31;4921416;29;20070;-55
2022/03/19 10:50:54;;;;;;;10.55;4.63;;;;;;;11.28;41.67;101565.25;4932282;28;20043;-53
2022/03/19 10:53:21;;;;;;;7.50;3.92;;;;;;;10.94;41.26;101570.25;4932754;29;20449;-52
2022/03/19 10:55:46;;;;;;;10.30;4.10;;;;;;;10.46;43.11;101571.66;4943874;28;20048;-54
2022/03/19 10:58:12;;;;;;;11.52;4.32;;;;;;;10.56;43.61;101562.34;4938361;29;20040;-56
2022/03/19 11:00:37;;;;;;;7.78;3.55;;;;;;;10.53;41.64;101543.94;4943522;28;20149;-55
2022/03/19 11:03:06;;;;;;;12.00;4.72;;;;;;;10.61;40.49;101547.53;4931744;29;20087;-54
2022/03/19 11:05:33;;;;;;;7.43;3.28;;;;;;;10.69;38.22;101558.19;4921867;28;20048;-50
2022/03/19 11:07:59;;;;;;;9.30;3.28;;;;;;;10.58;38.67;101541.53;4933400;29;20118;-53
2022/03/19 11:10:25;;;;;;;13.23;3.90;;;;;;;10.42;38.58;101539.03;4920782;28;20050;-53
2022/03/19 11:12:50;;;;;;;5.80;2.90;;;;;;;10.20;38.02;101526.53;4933366;29;20412;-55
2022/03/19 11:15:18;;;;;;;8.32;3.05;;;;;;;10.29;38.42;101514.75;4918182;28;20043;-52
2022/03/19 11:17:44;;;;;;;11.27;3.15;;;;;;;10.04;38.07;101519.50;4942882;29;20032;-52
2022/03/19 11:20:11;;;;;;;7.85;3.60;;;;;;;10.56;37.72;101508.72;4936806;28;20054;-53
2022/03/19 11:22:41;;;;;;;11.90;3.20;;;;;;;10.12;38.24;101530.94;4932910;29;20032;-54
2022/03/19 11:25:19;;;;;;;7.43;3.15;;;;;;;10.26;37.92;101498.97;4930895;28;20116;-53
2022/03/19 11:27:46;;;;;;;7.75;3.30;;;;;;;10.39;38.06;101509.94;4931489;29;20031;-55
2022/03/19 11:30:23;;;;;;;7.38;3.72;;;;;;;10.51;37.42;101492.34;4929745;28;20020;-53
2022/03/19 11:33:15;;;;;;;9.45;3.38;;;;;;;10.71;36.57;101483.72;4931399;29;20222;-50
2022/03/19 11:35:45;;;;;;;11.65;3.50;;;;;;;10.74;36.33;101483.34;4932276;28;20419;-55
2022/03/19 11:38:17;;;;;;;7.30;3.38;;;;;;;10.18;37.03;101469.59;4931867;29;20031;-54